createdAt,value
2018-01-13T00:01:42.582Z,93.60
2018-01-13T00:04:10.340Z,93.50
2018-01-13T00:06:37.768Z,93.60
2018-01-13T00:09:05.221Z,93.50
2018-01-13T00:11:32.923Z,93.50
2018-01-13T00:14:00.378Z,93.20
2018-01-13T00:16:28.039Z,92.90
2018-01-13T00:18:55.636Z,92.70
2018-01-13T00:21:23.081Z,92.90
2018-01-13T00:23:50.541Z,93.00
2018-01-13T00:26:17.993Z,93.30
2018-01-13T00:28:45.960Z,93.50
2018-01-13T00:31:13.398Z,93.50
2018-01-13T00:33:40.845Z,93.50
2018-01-13T00:36:08.348Z,93.60
2018-01-13T00:38:36.132Z,93.50
2018-01-13T00:41:03.708Z,93.70
2018-01-13T00:43:31.466Z,93.60
2018-01-13T00:45:58.908Z,93.60
2018-01-13T00:48:26.361Z,93.80
2018-01-13T00:50:53.856Z,93.80
2018-01-13T00:53:21.552Z,93.60
2018-01-13T00:55:49.020Z,93.50
2018-01-13T00:58:16.458Z,93.50
2018-01-13T01:00:43.904Z,93.50
2018-01-13T01:03:11.354Z,93.00
2018-01-13T01:05:38.820Z,92.60
2018-01-13T01:08:06.392Z,92.30
2018-01-13T01:10:33.834Z,92.30
2018-01-13T01:13:01.404Z,92.60
2018-01-13T01:15:28.954Z,93.00
2018-01-13T01:17:56.736Z,92.60
2018-01-13T01:20:24.234Z,92.50
2018-01-13T01:22:51.621Z,92.80
2018-01-13T01:25:19.069Z,92.90
2018-01-13T01:27:46.525Z,92.80
2018-01-13T01:30:14.361Z,92.90
2018-01-13T01:32:41.939Z,93.00
2018-01-13T01:35:09.394Z,92.70
2018-01-13T01:37:36.857Z,92.60
2018-01-13T01:40:04.330Z,92.40
2018-01-13T01:42:31.818Z,92.40
2018-01-13T01:45:02.292Z,92.20
2018-01-13T01:47:29.752Z,92.10
2018-01-13T01:49:57.216Z,91.90
2018-01-13T01:52:24.989Z,92.00
2018-01-13T01:54:55.740Z,91.90
2018-01-13T01:59:57.713Z,91.60
2018-01-13T02:02:25.139Z,91.30
2018-01-13T02:04:52.587Z,91.50
2018-01-13T02:07:20.043Z,91.60
2018-01-13T02:09:47.583Z,91.70
2018-01-13T02:12:15.012Z,91.70
2018-01-13T02:14:42.460Z,91.60
2018-01-13T02:17:09.908Z,91.60
2018-01-13T02:19:37.437Z,91.60
2018-01-13T02:22:04.885Z,91.80
2018-01-13T02:24:32.448Z,91.90
2018-01-13T02:26:59.939Z,91.90
2018-01-13T02:29:27.572Z,91.70
2018-01-13T02:31:55.032Z,91.90
2018-01-13T02:34:22.476Z,92.10
2018-01-13T02:36:50.184Z,92.00
2018-01-13T02:39:17.624Z,92.10
2018-01-13T02:41:45.061Z,92.30
2018-01-13T02:44:12.529Z,92.50
2018-01-13T02:46:40.397Z,92.40
2018-01-13T02:49:07.853Z,92.50
2018-01-13T02:51:35.298Z,92.70
2018-01-13T02:54:02.763Z,92.80
2018-01-13T02:56:30.203Z,93.00
2018-01-13T02:58:57.645Z,93.10
2018-01-13T03:01:25.868Z,93.00
2018-01-13T03:03:53.328Z,93.00
2018-01-13T03:06:20.777Z,93.10
2018-01-13T03:08:48.234Z,92.80
2018-01-13T03:11:15.679Z,92.80
2018-01-13T03:13:43.596Z,92.80
2018-01-13T03:16:11.048Z,92.50
2018-01-13T03:18:38.495Z,92.60
2018-01-13T03:21:06.380Z,92.80
2018-01-13T03:23:33.834Z,92.40
2018-01-13T03:26:01.269Z,92.50
2018-01-13T03:28:28.720Z,92.10
2018-01-13T03:30:56.162Z,92.00
2018-01-13T03:33:23.880Z,91.70
2018-01-13T03:35:51.320Z,92.00
2018-01-13T03:38:18.760Z,91.80
2018-01-13T03:40:46.233Z,91.70
2018-01-13T03:43:13.680Z,91.70
2018-01-13T03:45:41.141Z,91.90
2018-01-13T03:48:08.968Z,92.30
2018-01-13T03:50:36.416Z,91.80
2018-01-13T03:53:03.864Z,91.50
2018-01-13T03:55:31.300Z,91.40
2018-01-13T03:57:58.840Z,91.60
2018-01-13T04:00:26.301Z,91.80
2018-01-13T04:02:53.957Z,91.70
2018-01-13T04:05:21.420Z,91.50
2018-01-13T04:07:49.281Z,91.80
2018-01-13T04:10:17.131Z,91.80
2018-01-13T04:12:44.543Z,91.80
2018-01-13T04:15:11.981Z,91.70
2018-01-13T04:17:39.528Z,91.90
2018-01-13T04:20:06.966Z,92.20
2018-01-13T04:22:34.861Z,92.10
2018-01-13T04:25:02.292Z,92.20
2018-01-13T04:27:29.727Z,92.40
2018-01-13T04:29:57.201Z,92.30
2018-01-13T04:32:25.560Z,92.40
2018-01-13T04:34:53.410Z,92.50
2018-01-13T04:37:20.849Z,92.20
2018-01-13T04:39:49.450Z,92.10
2018-01-13T04:42:16.892Z,92.00
2018-01-13T04:44:44.336Z,91.90
2018-01-13T04:47:11.828Z,92.10
2018-01-13T04:49:39.280Z,92.20
2018-01-13T04:52:06.720Z,92.10
2018-01-13T04:54:34.184Z,92.30
2018-01-13T04:57:01.628Z,92.10
2018-01-13T04:59:29.644Z,92.10
2018-01-13T05:01:57.512Z,91.80
2018-01-13T05:04:24.944Z,92.00
2018-01-13T05:06:52.416Z,92.30
2018-01-13T05:09:19.854Z,92.50
2018-01-13T05:11:48.078Z,92.40
2018-01-13T05:14:15.534Z,92.40
2018-01-13T05:16:42.982Z,92.40
2018-01-13T05:19:10.433Z,92.60
2018-01-13T05:21:37.869Z,92.40
2018-01-13T05:24:05.348Z,92.70
2018-01-13T05:26:32.788Z,92.70
2018-01-13T05:29:00.325Z,92.60
2018-01-13T05:31:27.779Z,92.30
2018-01-13T05:33:55.262Z,92.10
2018-01-13T05:36:22.740Z,92.30
2018-01-13T05:38:50.181Z,92.40
2018-01-13T05:41:17.620Z,92.20
2018-01-13T05:43:45.158Z,92.30
2018-01-13T05:46:12.604Z,92.40
2018-01-13T05:48:40.136Z,92.60
2018-01-13T05:51:07.590Z,92.60
2018-01-13T05:53:35.429Z,92.30
2018-01-13T05:56:05.554Z,92.30
2018-01-13T05:58:33.126Z,92.20
2018-01-13T06:01:00.588Z,92.30
2018-01-13T06:03:28.028Z,92.40
2018-01-13T06:06:02.009Z,92.40
2018-01-13T06:08:29.545Z,92.20
2018-01-13T06:10:56.988Z,92.20
2018-01-13T06:13:24.457Z,91.70
2018-01-13T06:15:51.905Z,91.70
2018-01-13T06:18:19.349Z,91.90
2018-01-13T06:20:46.801Z,91.80
2018-01-13T06:23:14.236Z,92.10
2018-01-13T06:25:41.708Z,92.10
2018-01-13T06:28:09.184Z,92.10
2018-01-13T06:30:36.619Z,92.00
2018-01-13T06:33:04.076Z,92.20
2018-01-13T06:35:31.771Z,92.10
2018-01-13T06:37:59.291Z,92.00
2018-01-13T06:40:26.741Z,91.90
2018-01-13T06:42:54.949Z,92.00
2018-01-13T06:45:22.590Z,92.00
2018-01-13T06:47:50.050Z,92.00
2018-01-13T06:50:17.513Z,91.80
2018-01-13T06:52:44.960Z,91.80
2018-01-13T06:55:12.396Z,91.80
2018-01-13T06:57:39.861Z,91.60
2018-01-13T07:00:07.309Z,91.60
2018-01-13T07:02:35.084Z,91.50
2018-01-13T07:05:02.537Z,91.50
2018-01-13T07:07:29.980Z,91.50
2018-01-13T07:09:58.524Z,91.50
2018-01-13T07:12:25.969Z,91.40
2018-01-13T07:14:53.668Z,91.40
2018-01-13T07:17:21.100Z,91.30
2018-01-13T07:19:48.556Z,91.20
2018-01-13T07:22:16.044Z,91.20
2018-01-13T07:24:43.495Z,91.20
2018-01-13T07:27:11.241Z,91.30
2018-01-13T07:29:38.713Z,91.40
2018-01-13T07:32:06.173Z,91.30
2018-01-13T07:34:33.644Z,91.20
2018-01-13T07:37:01.084Z,91.30
2018-01-13T07:39:28.545Z,91.30
2018-01-13T07:41:55.992Z,91.20
2018-01-13T07:44:23.459Z,91.20
2018-01-13T07:46:50.912Z,91.20
2018-01-13T07:49:18.355Z,91.30
2018-01-13T07:51:46.160Z,91.30
2018-01-13T07:54:13.613Z,91.20
2018-01-13T07:56:41.093Z,91.30
2018-01-13T07:59:08.548Z,91.20
2018-01-13T08:01:36.221Z,91.30
2018-01-13T08:04:03.716Z,91.30
2018-01-13T08:06:31.147Z,91.40
2018-01-13T08:08:58.592Z,91.40
2018-01-13T08:11:26.064Z,91.30
2018-01-13T08:13:53.831Z,91.30
2018-01-13T08:16:21.505Z,91.20
2018-01-13T08:18:48.974Z,91.30
2018-01-13T08:21:16.413Z,91.00
2018-01-13T08:23:43.869Z,90.60
2018-01-13T08:26:11.741Z,90.60
2018-01-13T08:28:39.183Z,90.90
2018-01-13T08:31:06.623Z,91.00
2018-01-13T08:33:34.479Z,91.00
2018-01-13T08:36:01.915Z,90.90
2018-01-13T08:38:29.356Z,90.90
2018-01-13T08:40:57.230Z,90.90
2018-01-13T08:43:24.697Z,90.70
2018-01-13T08:45:52.244Z,90.90
2018-01-13T08:48:19.709Z,90.90
2018-01-13T08:50:47.157Z,90.90
2018-01-13T08:53:14.604Z,90.80
2018-01-13T08:55:42.050Z,90.70
2018-01-13T08:58:09.491Z,90.70
2018-01-13T09:00:36.937Z,90.70
2018-01-13T09:03:04.632Z,90.50
2018-01-13T09:05:32.128Z,90.60
2018-01-13T09:07:59.577Z,90.60
2018-01-13T09:10:27.022Z,90.70
2018-01-13T09:12:54.454Z,90.80
2018-01-13T09:15:22.120Z,90.70
2018-01-13T09:17:49.957Z,90.70
2018-01-13T09:20:17.435Z,90.50
2018-01-13T09:22:44.862Z,90.60
2018-01-13T09:25:12.339Z,90.80
2018-01-13T09:27:39.904Z,90.90
2018-01-13T09:30:07.351Z,90.70
2018-01-13T09:32:34.795Z,91.00
2018-01-13T09:35:02.260Z,91.20
2018-01-13T09:37:29.701Z,91.20
2018-01-13T09:39:58.556Z,90.80
2018-01-13T09:42:26.004Z,90.50
2018-01-13T09:44:53.435Z,90.30
2018-01-13T09:47:20.903Z,90.40
2018-01-13T09:49:48.359Z,90.20
2018-01-13T09:52:15.815Z,90.10
2018-01-13T09:54:43.736Z,90.00
2018-01-13T09:57:11.172Z,90.10
2018-01-13T09:59:38.620Z,90.10
2018-01-13T10:02:06.101Z,90.00
2018-01-13T10:04:33.561Z,89.50
2018-01-13T10:07:01.151Z,89.90
2018-01-13T10:09:28.604Z,89.70
2018-01-13T10:11:56.061Z,89.50
2018-01-13T10:14:23.511Z,89.60
2018-01-13T10:16:51.004Z,90.00
2018-01-13T10:19:18.482Z,89.60
2018-01-13T10:21:45.912Z,89.10
2018-01-13T10:24:13.355Z,88.90
2018-01-13T10:26:41.121Z,88.80
2018-01-13T10:29:08.562Z,87.60
2018-01-13T10:31:36.014Z,87.40
2018-01-13T10:34:03.474Z,87.70
2018-01-13T10:36:30.920Z,87.60
2018-01-13T10:38:58.364Z,87.20
2018-01-13T10:41:25.927Z,87.30
2018-01-13T10:43:53.698Z,87.10
2018-01-13T10:46:21.260Z,86.60
2018-01-13T10:48:48.723Z,86.30
2018-01-13T10:51:16.593Z,87.00
2018-01-13T10:53:44.039Z,86.70
2018-01-13T10:56:11.732Z,85.60
2018-01-13T10:58:39.177Z,85.40
2018-01-13T11:01:06.611Z,83.90
2018-01-13T11:03:34.069Z,81.80
2018-01-13T11:06:01.531Z,81.60
2018-01-13T11:08:28.971Z,81.70
2018-01-13T11:10:56.435Z,81.60
2018-01-13T11:13:23.855Z,80.70
2018-01-13T11:15:51.553Z,80.20
2018-01-13T11:18:19.761Z,79.60
2018-01-13T11:20:47.199Z,79.50
2018-01-13T11:23:14.648Z,78.50
2018-01-13T11:25:42.204Z,78.00
2018-01-13T11:28:09.659Z,77.20
2018-01-13T11:30:37.099Z,75.20
2018-01-13T11:33:04.529Z,73.30
2018-01-13T11:35:32.007Z,72.40
2018-01-13T11:37:59.440Z,71.60
2018-01-13T11:40:27.235Z,69.90
2018-01-13T11:42:54.673Z,70.20
2018-01-13T11:45:22.464Z,70.70
2018-01-13T11:47:50.337Z,70.30
2018-01-13T11:50:18.628Z,70.50
2018-01-13T11:52:46.469Z,68.60
2018-01-13T11:55:13.932Z,67.50
2018-01-13T11:57:41.371Z,68.10
2018-01-13T12:00:08.821Z,69.20
2018-01-13T12:02:36.286Z,69.10
2018-01-13T12:05:03.725Z,68.30
2018-01-13T12:07:33.873Z,68.60
2018-01-13T12:10:01.328Z,68.40
2018-01-13T12:12:29.165Z,67.80
2018-01-13T12:14:57.024Z,68.30
2018-01-13T12:17:24.897Z,68.30
2018-01-13T12:19:52.340Z,69.00
2018-01-13T12:22:19.770Z,69.20
2018-01-13T12:24:47.242Z,69.60
2018-01-13T12:27:14.699Z,69.40
2018-01-13T12:29:42.515Z,69.30
2018-01-13T12:32:09.953Z,69.50
2018-01-13T12:34:37.416Z,69.10
2018-01-13T12:37:04.866Z,69.20
2018-01-13T12:39:32.292Z,68.80
2018-01-13T12:42:00.836Z,66.70
2018-01-13T12:44:28.319Z,66.60
2018-01-13T12:46:56.065Z,67.20
2018-01-13T12:49:23.525Z,66.90
2018-01-13T12:51:50.957Z,67.10
2018-01-13T12:54:18.419Z,67.50
2018-01-13T12:56:45.861Z,67.70
2018-01-13T12:59:13.294Z,68.00
2018-01-13T13:01:40.867Z,68.00
2018-01-13T13:04:08.323Z,68.30
2018-01-13T13:06:35.976Z,68.20
2018-01-13T13:09:03.409Z,68.60
2018-01-13T13:11:30.856Z,68.80
2018-01-13T13:13:59.070Z,69.10
2018-01-13T13:16:26.517Z,69.00
2018-01-13T13:18:54.877Z,69.30
2018-01-13T13:21:22.561Z,69.10
2018-01-13T13:23:50.011Z,68.40
2018-01-13T13:26:17.465Z,68.90
2018-01-13T13:28:44.899Z,68.60
2018-01-13T13:31:12.364Z,68.70
2018-01-13T13:33:39.794Z,69.30
2018-01-13T13:36:07.261Z,69.40
2018-01-13T13:38:34.728Z,68.90
2018-01-13T13:41:02.201Z,67.30
2018-01-13T13:43:30.046Z,66.70
2018-01-13T13:45:57.491Z,67.50
2018-01-13T13:48:24.923Z,67.40
2018-01-13T13:50:52.381Z,67.50
2018-01-13T13:53:19.989Z,67.60
2018-01-13T13:55:47.436Z,68.00
2018-01-13T13:58:14.902Z,68.90
2018-01-13T14:00:42.351Z,69.30
2018-01-13T14:03:09.801Z,69.70
2018-01-13T14:05:37.315Z,69.70
2018-01-13T14:08:04.764Z,69.80
2018-01-13T14:10:32.204Z,70.20
2018-01-13T14:12:59.644Z,70.60
2018-01-13T14:15:27.098Z,70.20
2018-01-13T14:17:54.686Z,70.10
2018-01-13T14:20:22.128Z,70.40
2018-01-13T14:22:49.569Z,70.60
2018-01-13T14:25:17.800Z,71.40
2018-01-13T14:27:45.247Z,71.30
2018-01-13T14:30:12.676Z,72.10
2018-01-13T14:32:40.274Z,72.70
2018-01-13T14:35:07.707Z,73.40
2018-01-13T14:37:35.466Z,74.50
2018-01-13T14:40:03.233Z,73.90
2018-01-13T14:42:30.672Z,74.40
2018-01-13T14:44:58.388Z,74.60
2018-01-13T14:47:25.829Z,75.10
2018-01-13T14:49:53.270Z,75.20
2018-01-13T14:52:20.721Z,75.40
2018-01-13T14:54:48.575Z,75.60
2018-01-13T14:57:16.020Z,75.90
2018-01-13T14:59:43.467Z,75.90
2018-01-13T15:02:10.913Z,76.30
2018-01-13T15:04:38.391Z,76.50
2018-01-13T15:07:05.824Z,76.50
2018-01-13T15:09:33.276Z,76.70
2018-01-13T15:12:00.725Z,76.60
2018-01-13T15:14:28.159Z,76.70
2018-01-13T15:16:55.629Z,76.70
2018-01-13T15:19:23.082Z,76.80
2018-01-13T15:21:50.546Z,77.40
2018-01-13T15:24:18.008Z,77.50
2018-01-13T15:26:45.453Z,77.60
2018-01-13T15:29:13.033Z,77.50
2018-01-13T15:31:40.477Z,78.00
2018-01-13T15:34:08.005Z,78.30
2018-01-13T15:36:36.205Z,78.50
2018-01-13T15:39:03.653Z,78.50
2018-01-13T15:41:31.139Z,78.60
2018-01-13T15:43:58.583Z,78.90
2018-01-13T15:46:26.861Z,78.80
2018-01-13T15:48:54.668Z,79.20
2018-01-13T15:51:22.449Z,79.20
2018-01-13T15:53:49.906Z,79.30
2018-01-13T15:56:17.367Z,78.90
2018-01-13T15:58:44.846Z,78.90
2018-01-13T16:01:12.293Z,78.60
2018-01-13T16:03:39.732Z,78.30
2018-01-13T16:06:07.192Z,78.30
2018-01-13T16:08:34.656Z,78.20
2018-01-13T16:11:02.408Z,77.90
2018-01-13T16:13:29.841Z,77.30
2018-01-13T16:15:57.278Z,77.40
2018-01-13T16:18:24.729Z,77.50
2018-01-13T16:20:52.179Z,77.60
2018-01-13T16:23:19.914Z,77.50
2018-01-13T16:25:47.365Z,77.50
2018-01-13T16:28:14.808Z,77.00
2018-01-13T16:30:42.244Z,77.50
2018-01-13T16:33:09.691Z,77.50
2018-01-13T16:35:37.443Z,77.00
2018-01-13T16:38:04.887Z,77.10
2018-01-13T16:40:32.346Z,77.20
2018-01-13T16:42:59.809Z,77.30
2018-01-13T16:45:27.247Z,76.90
2018-01-13T16:47:55.184Z,76.80
2018-01-13T16:50:22.627Z,76.90
2018-01-13T16:52:50.075Z,76.80
2018-01-13T16:55:17.507Z,76.70
2018-01-13T16:57:44.940Z,77.00
2018-01-13T17:00:12.785Z,77.20
2018-01-13T17:02:40.276Z,77.20
2018-01-13T17:05:07.720Z,77.10
2018-01-13T17:07:36.986Z,77.00
2018-01-13T17:10:04.429Z,77.20
2018-01-13T17:12:32.257Z,77.30
2018-01-13T17:14:59.709Z,77.40
2018-01-13T17:17:27.149Z,77.40
2018-01-13T17:19:54.604Z,77.30
2018-01-13T17:22:22.060Z,77.20
2018-01-13T17:24:50.639Z,77.50
2018-01-13T17:27:18.069Z,77.90
2018-01-13T17:29:45.517Z,77.80
2018-01-13T17:32:12.973Z,77.80
2018-01-13T17:34:40.421Z,77.80
2018-01-13T17:37:07.877Z,77.90
2018-01-13T17:39:35.306Z,78.10
2018-01-13T17:42:03.840Z,78.30
2018-01-13T17:44:31.296Z,78.20
2018-01-13T17:46:58.760Z,78.20
2018-01-13T17:49:26.220Z,78.40
2018-01-13T17:51:53.992Z,78.30
2018-01-13T17:54:21.462Z,78.40
2018-01-13T17:56:48.912Z,78.30
2018-01-13T17:59:16.382Z,78.60
2018-01-13T18:01:43.833Z,78.90
2018-01-13T18:04:11.311Z,78.90
2018-01-13T18:06:38.969Z,79.10
2018-01-13T18:09:06.415Z,79.10
2018-01-13T18:11:33.857Z,79.10
2018-01-13T18:14:01.322Z,79.20
2018-01-13T18:16:28.756Z,79.40
2018-01-13T18:18:56.202Z,79.60
2018-01-13T18:21:23.865Z,79.50
2018-01-13T18:23:51.299Z,79.50
2018-01-13T18:26:18.765Z,79.60
2018-01-13T18:28:46.221Z,79.60
2018-01-13T18:31:13.687Z,80.20
2018-01-13T18:33:41.144Z,80.20
2018-01-13T18:36:08.588Z,80.50
2018-01-13T18:38:36.053Z,80.20
2018-01-13T18:41:03.496Z,80.40
2018-01-13T18:43:30.944Z,80.20
2018-01-13T18:45:58.392Z,80.30
2018-01-13T18:48:26.597Z,80.70
2018-01-13T18:50:54.073Z,80.50
2018-01-13T18:53:21.838Z,80.50
2018-01-13T18:55:49.263Z,80.10
2018-01-13T18:58:16.724Z,80.60
2018-01-13T19:00:44.351Z,80.70
2018-01-13T19:03:11.806Z,81.00
2018-01-13T19:05:39.252Z,81.10
2018-01-13T19:08:06.688Z,80.80
2018-01-13T19:10:34.921Z,81.70
2018-01-13T19:13:02.365Z,81.60
2018-01-13T19:15:29.830Z,82.00
2018-01-13T19:17:57.292Z,81.70
2018-01-13T19:20:24.733Z,81.90
2018-01-13T19:22:52.225Z,81.70
2018-01-13T19:25:19.680Z,81.80
2018-01-13T19:27:47.133Z,81.90
2018-01-13T19:30:14.572Z,81.80
2018-01-13T19:32:42.016Z,82.00
2018-01-13T19:35:09.474Z,82.00
2018-01-13T19:37:40.807Z,82.30
2018-01-13T19:40:08.422Z,82.40
2018-01-13T19:42:35.906Z,82.20
2018-01-13T19:45:03.373Z,82.70
2018-01-13T19:47:30.836Z,82.80
2018-01-13T19:49:58.287Z,83.00
2018-01-13T19:52:25.736Z,82.90
2018-01-13T19:55:00.161Z,83.00
2018-01-13T19:57:27.689Z,83.20
2018-01-13T19:59:55.129Z,83.10
2018-01-13T20:02:22.576Z,83.30
2018-01-13T20:04:50.161Z,83.50
2018-01-13T20:07:17.997Z,83.60
2018-01-13T20:09:45.449Z,83.70
2018-01-13T20:12:12.904Z,84.00
2018-01-13T20:14:40.363Z,84.20
2018-01-13T20:17:07.817Z,83.70
2018-01-13T20:19:35.264Z,84.00
2018-01-13T20:22:02.720Z,83.80
2018-01-13T20:24:30.186Z,83.60
2018-01-13T20:26:57.642Z,83.60
2018-01-13T20:29:25.100Z,84.60
2018-01-13T20:31:52.537Z,84.00
2018-01-13T20:34:20.398Z,83.90
2018-01-13T20:36:47.851Z,83.50
2018-01-13T20:39:15.301Z,83.70
2018-01-13T20:41:42.765Z,83.70
2018-01-13T20:44:10.211Z,83.50
2018-01-13T20:46:37.838Z,83.40
2018-01-13T20:49:05.264Z,83.20
2018-01-13T20:51:32.745Z,83.20
2018-01-13T20:54:00.223Z,84.10
2018-01-13T20:56:27.743Z,83.50
2018-01-13T20:58:55.200Z,83.50
2018-01-13T21:01:22.637Z,82.70
2018-01-13T21:03:50.138Z,82.40
2018-01-13T21:06:17.613Z,82.80
2018-01-13T21:08:45.049Z,83.00
2018-01-13T21:11:12.508Z,83.10
2018-01-13T21:13:40.198Z,82.70
2018-01-13T21:16:07.628Z,82.50
2018-01-13T21:18:35.115Z,82.40
2018-01-13T21:21:02.576Z,82.40
2018-01-13T21:23:30.025Z,82.30
2018-01-13T21:25:57.472Z,82.30
2018-01-13T21:28:24.909Z,82.30
2018-01-13T21:30:52.385Z,82.30
2018-01-13T21:33:19.809Z,82.00
2018-01-13T21:35:47.321Z,81.80
2018-01-13T21:38:14.756Z,81.60
2018-01-13T21:40:42.369Z,81.90
2018-01-13T21:43:09.821Z,82.00
2018-01-13T21:45:37.257Z,82.10
2018-01-13T21:48:04.716Z,81.90
2018-01-13T21:50:32.148Z,82.00
2018-01-13T21:52:59.969Z,82.30
2018-01-13T21:55:27.553Z,83.00
2018-01-13T21:57:54.999Z,82.10
2018-01-13T22:00:22.465Z,82.60
2018-01-13T22:02:49.911Z,81.70
2018-01-13T22:05:17.360Z,81.80
2018-01-13T22:07:44.835Z,81.80
2018-01-13T22:10:12.280Z,81.90
2018-01-13T22:12:39.747Z,81.70
2018-01-13T22:15:07.199Z,82.30
2018-01-13T22:17:34.636Z,81.90
2018-01-13T22:20:02.622Z,81.50
2018-01-13T22:22:30.061Z,81.30
2018-01-13T22:24:59.241Z,81.30
2018-01-13T22:27:26.702Z,81.20
2018-01-13T22:29:54.140Z,81.40
2018-01-13T22:32:21.586Z,81.50
2018-01-13T22:34:49.027Z,81.60
2018-01-13T22:37:16.486Z,81.50
2018-01-13T22:39:43.927Z,81.40
2018-01-13T22:42:11.382Z,81.50
2018-01-13T22:44:38.854Z,81.30
2018-01-13T22:47:07.098Z,81.50
2018-01-13T22:49:34.565Z,81.30
2018-01-13T22:52:02.041Z,81.60
2018-01-13T22:54:29.491Z,81.40
2018-01-13T22:56:56.950Z,81.60
2018-01-13T22:59:24.595Z,81.90
2018-01-13T23:01:52.054Z,82.10
2018-01-13T23:04:19.506Z,82.40
2018-01-13T23:06:46.948Z,82.40
2018-01-13T23:09:14.411Z,82.30
2018-01-13T23:11:41.846Z,82.50
2018-01-13T23:14:09.297Z,82.70
2018-01-13T23:16:36.755Z,82.70
2018-01-13T23:19:04.200Z,82.10
2018-01-13T23:21:31.652Z,82.50
2018-01-13T23:23:59.105Z,82.70
2018-01-13T23:26:26.554Z,83.10
2018-01-13T23:28:53.990Z,82.90
2018-01-13T23:31:21.445Z,83.10
2018-01-13T23:33:48.897Z,83.20
2018-01-13T23:36:16.347Z,83.10
2018-01-13T23:38:43.805Z,83.20
2018-01-13T23:41:11.240Z,83.50
2018-01-13T23:43:38.684Z,83.40
2018-01-13T23:46:06.152Z,83.30
2018-01-13T23:48:34.242Z,83.70
2018-01-13T23:51:01.688Z,83.70
2018-01-13T23:53:29.130Z,83.70
2018-01-13T23:55:56.564Z,83.40
2018-01-13T23:58:24.013Z,83.80
